Time,TemperatureF,DewpointF,PressureIn,WindDirection,WindDirectionDegrees,WindSpeedMPH,WindSpeedGustMPH,Humidity,HourlyPrecipIn,Conditions,Clouds,dailyrainin,SolarRadiationWatts/m^2,SoftwareType,DateUTC
2013-06-16 00:01:00,55.0,52.0,30.08,SSW,198,0.0,4.0,90,0.00,,,0.00,0.000000,,2013-06-16 07:01:00,
2013-06-16 00:11:00,55.0,52.0,30.08,SSW,198,0.0,4.0,90,0.00,,,0.00,0.000000,,2013-06-16 07:11:00,
2013-06-16 00:22:00,55.0,52.0,30.08,SSW,198,1.0,4.0,90,0.00,,,0.00,0.000000,,2013-06-16 07:22:00,
2013-06-16 00:32:00,55.0,52.0,30.08,SSW,198,1.0,4.0,90,0.00,,,0.00,0.000000,,2013-06-16 07:32:00,
2013-06-16 00:43:00,55.0,52.0,30.08,SSW,198,0.0,2.0,90,0.00,,,0.00,0.000000,,2013-06-16 07:43:00,
2013-06-16 00:53:00,54.0,51.0,30.08,SSW,198,0.0,1.0,90,0.00,,,0.00,0.000000,,2013-06-16 07:53:00,
2013-06-16 01:01:00,54.0,51.0,30.08,SSW,198,0.0,4.0,90,0.00,,,0.00,0.000000,,2013-06-16 08:01:00,
2013-06-16 01:11:00,54.0,51.0,30.08,SSW,198,0.0,4.0,90,0.00,,,0.00,0.000000,,2013-06-16 08:11:00,
2013-06-16 01:22:00,54.0,51.0,30.08,SSW,198,0.0,0.0,90,0.00,,,0.00,0.000000,,2013-06-16 08:22:00,
2013-06-16 01:33:00,54.0,51.0,30.08,SSW,198,0.0,0.0,90,0.00,,,0.00,0.000000,,2013-06-16 08:33:00,
2013-06-16 01:43:00,54.0,51.0,30.08,SSW,198,0.0,0.0,90,0.00,,,0.00,0.000000,,2013-06-16 08:43:00,
2013-06-16 01:54:00,54.0,51.0,30.08,SSW,198,0.0,0.0,90,0.00,,,0.00,0.000000,,2013-06-16 08:54:00,
2013-06-16 02:01:00,53.0,50.0,30.08,SSW,198,0.0,0.0,90,0.00,,,0.00,0.000000,,2013-06-16 09:01:00,
2013-06-16 02:11:00,53.0,50.0,30.08,SSW,198,0.0,0.0,90,0.00,,,0.00,0.000000,,2013-06-16 09:11:00,
2013-06-16 02:22:00,53.0,50.0,30.08,SSW,198,0.0,0.0,90,0.00,,,0.00,0.000000,,2013-06-16 09:22:00,
2013-06-16 02:33:00,53.0,50.0,30.08,SSW,198,0.0,0.0,90,0.00,,,0.00,0.000000,,2013-06-16 09:33:00,
2013-06-16 02:42:00,53.0,50.0,30.08,SSW,198,0.0,0.0,90,0.00,,,0.00,0.000000,,2013-06-16 09:42:00,
2013-06-16 02:52:00,52.0,49.0,30.08,SSE,167,1.0,3.0,90,0.00,,,0.00,0.000000,,2013-06-16 09:52:00,
2013-06-16 03:01:00,51.0,48.0,30.09,SSE,167,0.0,2.0,90,0.00,,,0.00,0.000000,,2013-06-16 10:01:00,
2013-06-16 03:12:00,51.0,48.0,30.09,SSE,167,0.0,2.0,90,0.00,,,0.00,0.000000,,2013-06-16 10:12:00,
2013-06-16 03:22:00,50.0,47.0,30.09,SSE,167,0.0,0.0,90,0.00,,,0.00,0.000000,,2013-06-16 10:22:00,
2013-06-16 03:33:00,50.0,47.0,30.09,SSE,167,0.0,2.0,91,0.00,,,0.00,0.000000,,2013-06-16 10:33:00,
2013-06-16 03:42:00,50.0,47.0,30.09,SSE,167,0.0,2.0,91,0.00,,,0.00,0.000000,,2013-06-16 10:42:00,
2013-06-16 03:53:00,51.0,49.0,30.09,SSE,167,0.0,0.0,92,0.00,,,0.00,0.000000,,2013-06-16 10:53:00,
2013-06-16 04:02:00,51.0,49.0,30.09,SSE,167,0.0,0.0,92,0.00,,,0.00,0.000000,,2013-06-16 11:02:00,
2013-06-16 04:11:00,51.0,49.0,30.09,SSE,167,0.0,0.0,92,0.00,,,0.00,0.000000,,2013-06-16 11:11:00,
2013-06-16 04:22:00,51.0,49.0,30.09,ESE,109,3.0,6.0,92,0.00,,,0.00,0.000000,,2013-06-16 11:22:00,
2013-06-16 04:33:00,51.0,49.0,30.09,ESE,109,3.0,6.0,92,0.00,,,0.00,0.000000,,2013-06-16 11:33:00,
2013-06-16 04:43:00,51.0,49.0,30.08,ESE,115,6.0,8.0,92,0.00,,,0.00,0.000000,,2013-06-16 11:43:00,
2013-06-16 04:53:00,52.0,49.0,30.08,ESE,111,4.0,10.0,91,0.00,,,0.00,0.000000,,2013-06-16 11:53:00,
2013-06-16 05:01:00,51.0,48.0,30.09,ESE,106,2.0,7.0,91,0.00,,,0.00,0.000000,,2013-06-16 12:01:00,
2013-06-16 05:11:00,51.0,48.0,30.09,ESE,106,2.0,7.0,91,0.00,,,0.00,0.000000,,2013-06-16 12:11:00,
2013-06-16 05:22:00,51.0,48.0,30.08,East,90,0.0,5.0,91,0.00,,,0.00,0.000000,,2013-06-16 12:22:00,
2013-06-16 05:32:00,51.0,48.0,30.09,East,90,0.0,0.0,91,0.00,,,0.00,0.000000,,2013-06-16 12:32:00,
2013-06-16 05:42:00,51.0,48.0,30.09,East,90,0.0,0.0,91,0.00,,,0.00,0.000000,,2013-06-16 12:42:00,
2013-06-16 05:53:00,50.0,47.0,30.09,East,90,0.0,0.0,91,0.00,,,0.00,0.000000,,2013-06-16 12:53:00,
2013-06-16 06:01:00,50.0,47.0,30.09,East,90,0.0,0.0,91,0.00,,,0.00,14.000000,,2013-06-16 13:01:00,
2013-06-16 06:11:00,50.0,47.0,30.09,East,90,0.0,0.0,91,0.00,,,0.00,14.000000,,2013-06-16 13:11:00,
2013-06-16 06:22:00,50.0,47.0,30.09,East,90,0.0,0.0,91,0.00,,,0.00,30.000000,,2013-06-16 13:22:00,
2013-06-16 06:34:00,51.0,49.0,30.09,East,90,0.0,0.0,92,0.00,,,0.00,21.000000,,2013-06-16 13:34:00,
2013-06-16 06:42:00,51.0,49.0,30.09,East,90,0.0,0.0,92,0.00,,,0.00,21.000000,,2013-06-16 13:42:00,
2013-06-16 06:53:00,51.0,49.0,30.09,East,90,0.0,1.0,92,0.00,,,0.00,47.000000,,2013-06-16 13:53:00,
2013-06-16 07:01:00,51.0,49.0,30.09,East,90,0.0,1.0,92,0.00,,,0.00,47.000000,,2013-06-16 14:01:00,
2013-06-16 07:12:00,51.0,49.0,30.09,East,90,0.0,0.0,92,0.00,,,0.00,102.000000,,2013-06-16 14:12:00,
2013-06-16 07:22:00,52.0,50.0,30.10,East,90,0.0,1.0,92,0.00,,,0.00,188.000000,,2013-06-16 14:22:00,
2013-06-16 07:34:00,53.0,50.0,30.10,East,100,3.0,5.0,91,0.00,,,0.00,105.000000,,2013-06-16 14:34:00,
2013-06-16 07:43:00,53.0,50.0,30.10,East,100,3.0,5.0,91,0.00,,,0.00,105.000000,,2013-06-16 14:43:00,
2013-06-16 07:52:00,53.0,50.0,30.10,ENE,78,4.0,6.0,91,0.00,,,0.00,163.000000,,2013-06-16 14:52:00,
2013-06-16 08:02:00,53.0,50.0,30.10,ENE,73,4.0,7.0,90,0.00,,,0.00,118.000000,,2013-06-16 15:02:00,
2013-06-16 08:12:00,53.0,50.0,30.10,ENE,73,4.0,7.0,90,0.00,,,0.00,118.000000,,2013-06-16 15:12:00,
2013-06-16 08:22:00,54.0,51.0,30.10,ESE,104,4.0,7.0,89,0.00,,,0.00,199.000000,,2013-06-16 15:22:00,
2013-06-16 08:33:00,54.0,51.0,30.10,ESE,104,4.0,7.0,89,0.00,,,0.00,199.000000,,2013-06-16 15:33:00,
2013-06-16 08:43:00,54.0,51.0,30.10,ENE,72,0.0,5.0,90,0.00,,,0.00,216.000000,,2013-06-16 15:43:00,
2013-06-16 08:52:00,55.0,52.0,30.10,ENE,63,2.0,5.0,88,0.00,,,0.00,220.000000,,2013-06-16 15:52:00,
2013-06-16 09:01:00,56.0,52.0,30.10,ESE,109,3.0,7.0,85,0.00,,,0.00,278.000000,,2013-06-16 16:01:00,
2013-06-16 09:11:00,56.0,52.0,30.10,ESE,109,3.0,7.0,85,0.00,,,0.00,278.000000,,2013-06-16 16:11:00,
2013-06-16 09:22:00,56.0,52.0,30.11,NW,323,3.0,5.0,87,0.00,,,0.00,628.000000,,2013-06-16 16:22:00,
2013-06-16 09:33:00,55.0,51.0,30.11,WNW,301,3.0,6.0,87,0.00,,,0.00,213.000000,,2013-06-16 16:33:00,
2013-06-16 09:43:00,55.0,51.0,30.11,WNW,301,3.0,6.0,87,0.00,,,0.00,213.000000,,2013-06-16 16:43:00,
2013-06-16 09:53:00,57.0,53.0,30.11,WSW,245,5.0,9.0,85,0.00,,,0.00,350.000000,,2013-06-16 16:53:00,
2013-06-16 10:01:00,57.0,53.0,30.12,WSW,243,3.0,7.0,87,0.00,,,0.00,373.000000,,2013-06-16 17:01:00,
2013-06-16 10:11:00,57.0,53.0,30.12,WSW,243,3.0,7.0,87,0.00,,,0.00,373.000000,,2013-06-16 17:11:00,
2013-06-16 10:22:00,55.0,51.0,30.12,South,191,2.0,6.0,86,0.00,,,0.00,218.000000,,2013-06-16 17:22:00,
2013-06-16 10:34:00,55.0,51.0,30.12,South,191,2.0,6.0,86,0.00,,,0.00,218.000000,,2013-06-16 17:34:00,
2013-06-16 10:43:00,58.0,54.0,30.13,SW,224,5.0,7.0,86,0.00,,,0.00,691.000000,,2013-06-16 17:43:00,
2013-06-16 10:53:00,58.0,54.0,30.12,SSW,201,4.0,7.0,85,0.00,,,0.00,747.000000,,2013-06-16 17:53:00,
2013-06-16 11:01:00,59.0,54.0,30.12,SSW,206,6.0,8.0,85,0.00,,,0.00,798.000000,,2013-06-16 18:01:00,
2013-06-16 11:12:00,59.0,54.0,30.12,SSW,206,6.0,8.0,85,0.00,,,0.00,798.000000,,2013-06-16 18:12:00,
2013-06-16 11:22:00,59.0,54.0,30.13,SSW,208,7.0,8.0,85,0.00,,,0.00,840.000000,,2013-06-16 18:22:00,
2013-06-16 11:33:00,59.0,54.0,30.13,SSW,204,6.0,8.0,85,0.00,,,0.00,905.000000,,2013-06-16 18:33:00,
2013-06-16 11:43:00,59.0,54.0,30.13,SSW,204,6.0,8.0,85,0.00,,,0.00,905.000000,,2013-06-16 18:43:00,
2013-06-16 11:52:00,59.0,54.0,30.13,SSW,213,7.0,9.0,85,0.00,,,0.00,457.000000,,2013-06-16 18:52:00,
2013-06-16 12:01:00,59.0,55.0,30.13,SSW,206,6.0,8.0,86,0.00,,,0.00,766.000000,,2013-06-16 19:01:00,
2013-06-16 12:11:00,59.0,55.0,30.13,SSW,206,6.0,8.0,86,0.00,,,0.00,766.000000,,2013-06-16 19:11:00,
2013-06-16 12:22:00,59.0,54.0,30.13,SSW,200,5.0,8.0,85,0.00,,,0.00,677.000000,,2013-06-16 19:22:00,
2013-06-16 12:33:00,59.0,54.0,30.13,SSW,200,5.0,8.0,85,0.00,,,0.00,677.000000,,2013-06-16 19:33:00,
2013-06-16 12:43:00,59.0,55.0,30.13,SSW,204,6.0,9.0,86,0.00,,,0.00,874.000000,,2013-06-16 19:43:00,
2013-06-16 12:53:00,59.0,55.0,30.13,SSW,212,6.0,10.0,87,0.00,,,0.00,587.000000,,2013-06-16 19:53:00,
2013-06-16 13:01:00,59.0,55.0,30.13,SSW,200,6.0,10.0,88,0.00,,,0.00,,,2013-06-16 20:01:00,
2013-06-16 13:11:00,59.0,55.0,30.13,SSW,200,6.0,10.0,88,0.00,,,0.00,,,2013-06-16 20:11:00,
2013-06-16 13:22:00,59.0,55.0,30.13,SSW,210,7.0,10.0,87,0.00,,,0.00,981.000000,,2013-06-16 20:22:00,
2013-06-16 13:33:00,60.0,56.0,30.14,SSW,206,7.0,9.0,86,0.00,,,0.00,928.000000,,2013-06-16 20:33:00,
2013-06-16 13:42:00,60.0,56.0,30.14,SSW,206,7.0,9.0,86,0.00,,,0.00,928.000000,,2013-06-16 20:42:00,
2013-06-16 13:53:00,59.0,54.0,30.14,SW,219,8.0,11.0,85,0.00,,,0.00,621.000000,,2013-06-16 20:53:00,
2013-06-16 14:01:00,59.0,54.0,30.13,SW,222,8.0,10.0,85,0.00,,,0.00,617.000000,,2013-06-16 21:01:00,
2013-06-16 14:11:00,59.0,54.0,30.13,SW,222,8.0,10.0,85,0.00,,,0.00,617.000000,,2013-06-16 21:11:00,
2013-06-16 14:21:00,60.0,55.0,30.14,SW,222,9.0,11.0,85,0.00,,,0.00,833.000000,,2013-06-16 21:21:00,
2013-06-16 14:32:00,59.0,54.0,30.14,SW,224,9.0,12.0,84,0.00,,,0.00,675.000000,,2013-06-16 21:32:00,
2013-06-16 14:42:00,59.0,54.0,30.14,SW,224,9.0,12.0,84,0.00,,,0.00,675.000000,,2013-06-16 21:42:00,
2013-06-16 14:53:00,60.0,55.0,30.14,SW,227,8.0,10.0,84,0.00,,,0.00,659.000000,,2013-06-16 21:53:00,
2013-06-16 15:01:00,60.0,56.0,30.14,SSW,204,8.0,10.0,86,0.00,,,0.00,960.000000,,2013-06-16 22:01:00,
2013-06-16 15:12:00,60.0,56.0,30.14,SSW,204,8.0,10.0,86,0.00,,,0.00,960.000000,,2013-06-16 22:12:00,
2013-06-16 15:22:00,60.0,55.0,30.14,SSW,198,8.0,10.0,85,0.00,,,0.00,935.000000,,2013-06-16 22:22:00,
2013-06-16 15:32:00,61.0,56.0,30.14,SSW,197,9.0,12.0,84,0.00,,,0.00,765.000000,,2013-06-16 22:32:00,
2013-06-16 15:41:00,61.0,56.0,30.14,SSW,197,9.0,12.0,84,0.00,,,0.00,765.000000,,2013-06-16 22:41:00,
2013-06-16 15:52:00,60.0,55.0,30.15,SSW,193,9.0,12.0,85,0.00,,,0.00,671.000000,,2013-06-16 22:52:00,
2013-06-16 16:01:00,59.0,54.0,30.15,SSW,198,9.0,12.0,85,0.00,,,0.00,577.000000,,2013-06-16 23:01:00,
2013-06-16 16:11:00,59.0,54.0,30.15,SSW,198,9.0,12.0,85,0.00,,,0.00,577.000000,,2013-06-16 23:11:00,
2013-06-16 16:22:00,59.0,54.0,30.15,SSW,204,9.0,12.0,85,0.00,,,0.00,485.000000,,2013-06-16 23:22:00,
2013-06-16 16:32:00,59.0,54.0,30.15,SSW,208,9.0,12.0,85,0.00,,,0.00,631.000000,,2013-06-16 23:32:00,
2013-06-16 16:42:00,59.0,54.0,30.15,SSW,208,9.0,12.0,85,0.00,,,0.00,631.000000,,2013-06-16 23:42:00,
2013-06-16 16:52:00,59.0,55.0,30.15,SSW,198,8.0,12.0,86,0.00,,,0.00,522.000000,,2013-06-16 23:52:00,
2013-06-16 17:01:00,59.0,55.0,30.14,SSW,199,8.0,11.0,86,0.00,,,0.00,573.000000,,2013-06-17 00:01:00,
2013-06-16 17:11:00,59.0,55.0,30.14,SSW,199,8.0,11.0,86,0.00,,,0.00,573.000000,,2013-06-17 00:11:00,
2013-06-16 17:22:00,59.0,55.0,30.14,SSW,206,10.0,13.0,86,0.00,,,0.00,708.000000,,2013-06-17 00:22:00,
2013-06-16 17:32:00,58.0,54.0,30.14,SSW,206,12.0,14.0,85,0.00,,,0.00,446.000000,,2013-06-17 00:32:00,
2013-06-16 17:42:00,58.0,54.0,30.14,SSW,206,12.0,14.0,85,0.00,,,0.00,446.000000,,2013-06-17 00:42:00,
2013-06-16 17:52:00,58.0,54.0,30.14,SSW,203,10.0,14.0,87,0.00,,,0.00,534.000000,,2013-06-17 00:52:00,
2013-06-16 18:02:00,57.0,53.0,30.14,SSW,206,10.0,13.0,87,0.00,,,0.00,290.000000,,2013-06-17 01:02:00,
2013-06-16 18:11:00,57.0,53.0,30.14,SSW,206,10.0,13.0,87,0.00,,,0.00,290.000000,,2013-06-17 01:11:00,
2013-06-16 18:22:00,56.0,52.0,30.15,SSW,203,11.0,14.0,88,0.00,,,0.00,127.000000,,2013-06-17 01:22:00,
2013-06-16 18:32:00,56.0,53.0,30.16,SSW,203,9.0,13.0,89,0.00,,,0.00,169.000000,,2013-06-17 01:32:00,
2013-06-16 18:43:00,56.0,53.0,30.16,SSW,203,9.0,13.0,89,0.00,,,0.00,169.000000,,2013-06-17 01:43:00,
2013-06-16 18:53:00,56.0,53.0,30.16,SSW,206,12.0,15.0,89,0.00,,,0.00,165.000000,,2013-06-17 01:53:00,
2013-06-16 19:02:00,56.0,53.0,30.16,South,191,11.0,15.0,90,0.00,,,0.00,139.000000,,2013-06-17 02:02:00,
2013-06-16 19:11:00,56.0,53.0,30.16,South,191,11.0,15.0,90,0.00,,,0.00,139.000000,,2013-06-17 02:11:00,
2013-06-16 19:22:00,56.0,53.0,30.15,SSW,199,12.0,15.0,90,0.00,,,0.00,91.000000,,2013-06-17 02:22:00,
2013-06-16 19:34:00,56.0,53.0,30.15,SSW,194,10.0,15.0,90,0.00,,,0.00,111.000000,,2013-06-17 02:34:00,
2013-06-16 19:43:00,56.0,53.0,30.15,SSW,194,10.0,15.0,90,0.00,,,0.00,111.000000,,2013-06-17 02:43:00,
2013-06-16 19:53:00,55.0,52.0,30.15,SSW,199,12.0,15.0,90,0.00,,,0.00,53.000000,,2013-06-17 02:53:00,
2013-06-16 20:02:00,55.0,52.0,30.15,South,191,8.0,13.0,90,0.00,,,0.00,33.000000,,2013-06-17 03:02:00,
2013-06-16 20:11:00,55.0,52.0,30.15,South,191,8.0,13.0,90,0.00,,,0.00,33.000000,,2013-06-17 03:11:00,
2013-06-16 20:22:00,55.0,52.0,30.16,South,177,8.0,11.0,91,0.00,,,0.00,49.000000,,2013-06-17 03:22:00,
2013-06-16 20:33:00,56.0,53.0,30.16,SSW,204,8.0,11.0,91,0.00,,,0.00,46.000000,,2013-06-17 03:33:00,
2013-06-16 20:44:00,56.0,53.0,30.16,SSW,204,8.0,11.0,91,0.00,,,0.00,46.000000,,2013-06-17 03:44:00,
2013-06-16 20:53:00,56.0,53.0,30.15,SSW,204,10.0,13.0,91,0.00,,,0.00,35.000000,,2013-06-17 03:53:00,
2013-06-16 21:02:00,56.0,53.0,30.15,SSW,194,8.0,15.0,91,0.00,,,0.00,12.000000,,2013-06-17 04:02:00,
2013-06-16 21:12:00,56.0,53.0,30.15,SSW,194,8.0,15.0,91,0.00,,,0.00,12.000000,,2013-06-17 04:12:00,
2013-06-16 21:22:00,56.0,53.0,30.15,SSW,203,8.0,13.0,91,0.00,,,0.00,0.000000,,2013-06-17 04:22:00,
2013-06-16 21:33:00,56.0,53.0,30.15,SSW,203,8.0,13.0,91,0.00,,,0.00,0.000000,,2013-06-17 04:33:00,
2013-06-16 21:42:00,56.0,54.0,30.15,SSW,200,9.0,13.0,92,0.00,,,0.00,0.000000,,2013-06-17 04:42:00,
2013-06-16 21:53:00,56.0,54.0,30.15,SSW,194,9.0,11.0,92,0.00,,,0.00,0.000000,,2013-06-17 04:53:00,
2013-06-16 22:02:00,55.0,53.0,30.15,South,182,7.0,10.0,92,0.00,,,0.00,0.000000,,2013-06-17 05:02:00,
2013-06-16 22:11:00,55.0,53.0,30.15,South,182,7.0,10.0,92,0.00,,,0.00,0.000000,,2013-06-17 05:11:00,
2013-06-16 22:22:00,55.0,53.0,30.15,South,183,4.0,8.0,92,0.00,,,0.00,0.000000,,2013-06-17 05:22:00,
2013-06-16 22:33:00,55.0,53.0,30.15,SSW,198,3.0,8.0,92,0.00,,,0.00,0.000000,,2013-06-17 05:33:00,
2013-06-16 22:44:00,55.0,53.0,30.15,SSW,198,3.0,8.0,92,0.00,,,0.00,0.000000,,2013-06-17 05:44:00,
2013-06-16 22:53:00,56.0,54.0,30.15,SSW,198,4.0,7.0,92,0.00,,,0.00,0.000000,,2013-06-17 05:53:00,
2013-06-16 23:02:00,56.0,54.0,30.15,SSW,194,5.0,7.0,92,0.00,,,0.00,0.000000,,2013-06-17 06:02:00,
2013-06-16 23:12:00,56.0,54.0,30.15,SSW,194,5.0,7.0,92,0.00,,,0.00,0.000000,,2013-06-17 06:12:00,
2013-06-16 23:22:00,56.0,54.0,30.15,SSW,194,2.0,7.0,92,0.00,,,0.00,0.000000,,2013-06-17 06:22:00,
2013-06-16 23:32:00,56.0,53.0,30.14,SSW,199,5.0,8.0,91,0.00,,,0.00,0.000000,,2013-06-17 06:32:00,
2013-06-16 23:43:00,56.0,53.0,30.14,SSW,199,5.0,8.0,91,0.00,,,0.00,0.000000,,2013-06-17 06:43:00,
2013-06-16 23:53:00,56.0,53.0,30.14,SSW,198,6.0,8.0,91,0.00,,,0.00,0.000000,,2013-06-17 06:53:00,